Time;durP1;ratioP1;P1;durP2;ratioP2;P2;SDS_P1;SDS_P2;PMS_P1;PMS_P2;Temp;Humidity;BMP_temperature;BMP_pressure;BME280_temperature;BME280_humidity;BME280_pressure;Samples;Min_cycle;Max_cycle;Signal;HPM_P1;HPM_P2
2023/12/15 00:01:27;;;;;;;133.67;43.33;;;;;;;;;;4869389;29;20045;-63
2023/12/15 00:03:53;;;;;;;130.07;43.13;;;;;;;;;;4873955;29;20044;-64
2023/12/15 00:06:19;;;;;;;114.97;39.70;;;;;;;;;;4875443;29;20084;-64
2023/12/15 00:08:45;;;;;;;129.33;43.13;;;;;;;;;;4874763;29;20045;-64
2023/12/15 00:11:11;;;;;;;118.20;41.70;;;;;;;;;;4875143;29;20057;-63
2023/12/15 00:13:37;;;;;;;104.10;39.30;;;;;;;;;;4875489;29;20072;-63
2023/12/15 00:16:03;;;;;;;105.30;38.20;;;;;;;;;;4875951;29;20052;-64
2023/12/15 00:18:29;;;;;;;117.23;41.90;;;;;;;;;;4876711;29;20136;-64
2023/12/15 00:20:55;;;;;;;119.20;40.53;;;;;;;;;;4877021;29;20236;-63
2023/12/15 00:23:21;;;;;;;108.00;40.10;;;;;;;;;;4876779;29;20523;-63
2023/12/15 00:25:47;;;;;;;93.83;40.10;;;;;;;;;;4876024;29;20057;-63
2023/12/15 00:28:13;;;;;;;116.30;44.30;;;;;;;;;;4876763;29;20060;-64
2023/12/15 00:30:39;;;;;;;120.97;44.77;;;;;;;;;;4876413;29;20052;-64
2023/12/15 00:33:05;;;;;;;118.77;44.33;;;;;;;;;;4876020;29;20404;-64
2023/12/15 00:35:31;;;;;;;113.37;42.43;;;;;;;;;;4875610;29;20045;-64
2023/12/15 00:37:57;;;;;;;100.90;41.73;;;;;;;;;;4875664;29;20424;-64
2023/12/15 00:40:23;;;;;;;104.60;43.43;;;;;;;;;;4876054;29;20053;-64
2023/12/15 00:42:49;;;;;;;100.87;43.83;;;;;;;;;;4876189;29;20092;-63
2023/12/15 00:45:15;;;;;;;99.97;43.83;;;;;;;;;;4876110;29;20056;-64
2023/12/15 00:47:41;;;;;;;115.20;46.20;;;;;;;;;;4876362;29;20053;-63
2023/12/15 00:50:08;;;;;;;98.17;43.03;;;;;;;;;;4875632;29;20045;-63
2023/12/15 00:52:34;;;;;;;95.73;42.03;;;;;;;;;;4875980;29;20504;-63
2023/12/15 00:55:00;;;;;;;129.30;50.70;;;;;;;;;;4876111;29;20056;-64
2023/12/15 00:57:26;;;;;;;109.57;46.13;;;;;;;;;;4875656;29;20100;-63
2023/12/15 00:59:52;;;;;;;121.33;47.57;;;;;;;;;;4875952;29;20049;-64
2023/12/15 01:02:18;;;;;;;106.57;45.07;;;;;;;;;;4875847;29;20104;-64
2023/12/15 01:04:44;;;;;;;122.70;50.00;;;;;;;;;;4873583;29;20045;-63
2023/12/15 01:07:10;;;;;;;102.60;44.77;;;;;;;;;;4875799;29;20052;-64
2023/12/15 01:09:37;;;;;;;105.53;47.23;;;;;;;;;;4875874;29;20057;-64
2023/12/15 01:12:03;;;;;;;109.17;48.60;;;;;;;;;;4874807;29;20064;-63
2023/12/15 01:14:29;;;;;;;104.17;47.10;;;;;;;;;;4874736;29;20051;-63
2023/12/15 01:16:55;;;;;;;127.50;50.47;;;;;;;;;;4875234;29;20044;-63
2023/12/15 01:19:21;;;;;;;110.83;47.30;;;;;;;;;;4875902;29;20060;-64
2023/12/15 01:21:47;;;;;;;105.23;46.63;;;;;;;;;;4876042;29;20097;-64
2023/12/15 01:24:13;;;;;;;116.30;49.93;;;;;;;;;;4875642;29;20469;-63
2023/12/15 01:26:39;;;;;;;109.93;45.17;;;;;;;;;;4875803;29;20049;-64
2023/12/15 01:29:05;;;;;;;137.23;52.10;;;;;;;;;;4875146;29;20523;-64
2023/12/15 01:31:31;;;;;;;105.27;46.10;;;;;;;;;;4875000;29;20048;-63
2023/12/15 01:33:57;;;;;;;104.57;46.13;;;;;;;;;;4875569;29;20052;-64
2023/12/15 01:36:24;;;;;;;90.13;43.27;;;;;;;;;;4875239;29;20044;-64
2023/12/15 01:38:50;;;;;;;95.03;45.23;;;;;;;;;;4875657;29;20053;-64
2023/12/15 01:41:16;;;;;;;95.13;44.27;;;;;;;;;;4874359;29;20048;-64
2023/12/15 01:43:42;;;;;;;112.73;49.00;;;;;;;;;;4874978;29;20531;-64
2023/12/15 01:46:08;;;;;;;112.60;46.53;;;;;;;;;;4875560;29;20440;-64
2023/12/15 01:48:35;;;;;;;108.73;45.23;;;;;;;;;;4874845;29;20052;-63
2023/12/15 01:51:01;;;;;;;101.93;44.40;;;;;;;;;;4874793;29;20192;-63
2023/12/15 01:53:27;;;;;;;116.47;48.97;;;;;;;;;;4875120;29;20052;-64
2023/12/15 01:55:53;;;;;;;118.27;47.13;;;;;;;;;;4874950;29;20412;-64
2023/12/15 01:58:19;;;;;;;134.50;50.90;;;;;;;;;;4874777;29;20069;-64
2023/12/15 02:00:48;;;;;;;91.40;41.03;;;;;;;;;;4875059;29;20080;-64
2023/12/15 02:03:14;;;;;;;108.90;46.07;;;;;;;;;;4875055;29;20128;-64
2023/12/15 02:05:40;;;;;;;99.63;45.67;;;;;;;;;;4875084;29;20471;-64
2023/12/15 02:08:06;;;;;;;95.47;43.07;;;;;;;;;;4875054;29;20055;-63
2023/12/15 02:10:36;;;;;;;100.57;45.27;;;;;;;;;;4874948;29;20045;-64
2023/12/15 02:13:02;;;;;;;129.97;49.10;;;;;;;;;;4873697;29;20045;-64
2023/12/15 02:15:28;;;;;;;123.77;47.97;;;;;;;;;;4875076;29;20132;-63
2023/12/15 02:17:54;;;;;;;111.47;44.40;;;;;;;;;;4874401;29;20110;-63
2023/12/15 02:20:20;;;;;;;132.10;51.30;;;;;;;;;;4875183;29;20515;-63
2023/12/15 02:22:46;;;;;;;116.27;46.73;;;;;;;;;;4874894;29;20057;-64
2023/12/15 02:25:12;;;;;;;110.10;45.37;;;;;;;;;;4874408;29;20071;-63
2023/12/15 02:27:39;;;;;;;122.50;49.07;;;;;;;;;;4873957;29;20057;-64
2023/12/15 02:30:06;;;;;;;119.30;48.87;;;;;;;;;;4874662;29;20048;-64
2023/12/15 02:32:32;;;;;;;126.77;48.70;;;;;;;;;;4874673;29;20049;-64
2023/12/15 02:34:58;;;;;;;156.93;52.67;;;;;;;;;;4874736;29;20079;-64
2023/12/15 02:37:24;;;;;;;129.53;50.60;;;;;;;;;;4874288;29;20048;-63
2023/12/15 02:39:50;;;;;;;147.37;52.63;;;;;;;;;;4874895;29;20496;-64
2023/12/15 02:42:16;;;;;;;117.77;47.60;;;;;;;;;;4873859;29;20496;-64
2023/12/15 02:44:44;;;;;;;152.23;53.40;;;;;;;;;;4873857;29;20072;-64
2023/12/15 02:47:09;;;;;;;124.60;46.87;;;;;;;;;;4874706;29;20049;-63
2023/12/15 02:49:41;;;;;;;142.87;51.53;;;;;;;;;;4874810;29;20045;-64
2023/12/15 02:52:08;;;;;;;129.43;48.43;;;;;;;;;;4874250;29;20101;-64
2023/12/15 02:54:35;;;;;;;158.70;52.73;;;;;;;;;;4872114;29;20041;-64
2023/12/15 02:57:01;;;;;;;136.73;50.53;;;;;;;;;;4874144;29;20052;-64
2023/12/15 02:59:27;;;;;;;151.33;50.33;;;;;;;;;;4874061;29;20108;-64
2023/12/15 03:01:53;;;;;;;125.07;49.67;;;;;;;;;;4874388;29;20140;-63
2023/12/15 03:04:18;;;;;;;176.27;53.10;;;;;;;;;;4877650;29;20044;-63
2023/12/15 03:06:45;;;;;;;157.73;51.27;;;;;;;;;;4878635;29;20072;-64
2023/12/15 03:09:11;;;;;;;192.63;57.30;;;;;;;;;;4877936;29;20045;-64
2023/12/15 03:11:38;;;;;;;184.50;55.97;;;;;;;;;;4878269;29;20057;-63
2023/12/15 03:14:04;;;;;;;164.87;54.37;;;;;;;;;;4877778;29;20045;-64
2023/12/15 03:16:30;;;;;;;198.80;57.47;;;;;;;;;;4878013;29;20480;-64
2023/12/15 03:18:56;;;;;;;204.00;58.83;;;;;;;;;;4878585;29;20060;-64
2023/12/15 03:21:22;;;;;;;217.40;60.23;;;;;;;;;;4878483;29;20053;-64
2023/12/15 03:23:48;;;;;;;238.47;63.63;;;;;;;;;;4877555;29;20143;-64
2023/12/15 03:26:14;;;;;;;159.23;53.07;;;;;;;;;;4877690;29;20092;-64
2023/12/15 03:28:40;;;;;;;184.50;57.30;;;;;;;;;;4877520;29;20189;-64
2023/12/15 03:31:07;;;;;;;187.00;55.73;;;;;;;;;;4876821;29;20053;-64
2023/12/15 03:33:34;;;;;;;160.50;53.90;;;;;;;;;;4877922;29;20060;-64
2023/12/15 03:36:00;;;;;;;206.67;58.30;;;;;;;;;;4876494;29;20602;-63
2023/12/15 03:38:26;;;;;;;193.80;59.73;;;;;;;;;;4877585;29;20049;-63
2023/12/15 03:40:52;;;;;;;191.13;57.73;;;;;;;;;;4877544;29;20041;-64
2023/12/15 03:43:18;;;;;;;197.47;57.63;;;;;;;;;;4877643;29;20041;-64
2023/12/15 03:45:44;;;;;;;173.17;56.40;;;;;;;;;;4876887;29;20053;-63
2023/12/15 03:48:10;;;;;;;192.60;57.10;;;;;;;;;;4877536;29;20056;-64
2023/12/15 03:50:36;;;;;;;182.03;55.17;;;;;;;;;;4877488;29;20045;-63
2023/12/15 03:53:02;;;;;;;199.50;57.17;;;;;;;;;;4877145;29;20096;-63
2023/12/15 03:55:28;;;;;;;231.37;61.90;;;;;;;;;;4876307;29;20055;-63
2023/12/15 03:57:54;;;;;;;182.97;58.90;;;;;;;;;;4876772;29;20080;-63
2023/12/15 04:00:20;;;;;;;152.20;53.23;;;;;;;;;;4877017;29;20053;-64
2023/12/15 04:02:47;;;;;;;181.63;57.90;;;;;;;;;;4877159;29;20098;-63
2023/12/15 04:05:13;;;;;;;189.77;58.73;;;;;;;;;;4876772;29;20057;-63
2023/12/15 04:07:39;;;;;;;184.20;56.10;;;;;;;;;;4877333;29;20052;-63
2023/12/15 04:10:05;;;;;;;219.73;59.33;;;;;;;;;;4875726;29;20057;-63
2023/12/15 04:12:31;;;;;;;212.13;61.13;;;;;;;;;;4877039;29;20060;-63
2023/12/15 04:14:57;;;;;;;207.17;58.77;;;;;;;;;;4876219;29;20049;-64
2023/12/15 04:17:23;;;;;;;182.23;57.40;;;;;;;;;;4876509;29;20053;-64
2023/12/15 04:19:49;;;;;;;211.40;56.97;;;;;;;;;;4876829;29;20136;-63
2023/12/15 04:22:15;;;;;;;228.93;61.80;;;;;;;;;;4876660;29;20052;-64
2023/12/15 04:24:42;;;;;;;198.90;59.77;;;;;;;;;;4875595;29;20068;-63
2023/12/15 04:27:08;;;;;;;198.70;57.50;;;;;;;;;;4876471;29;20140;-64
2023/12/15 04:29:34;;;;;;;195.90;58.80;;;;;;;;;;4876875;29;20204;-64
2023/12/15 04:32:00;;;;;;;192.97;59.73;;;;;;;;;;4875810;29;20120;-64
2023/12/15 04:34:27;;;;;;;215.40;55.97;;;;;;;;;;4876825;29;20416;-64
2023/12/15 04:36:55;;;;;;;205.50;61.40;;;;;;;;;;4876656;29;20555;-64
2023/12/15 04:39:21;;;;;;;197.30;60.33;;;;;;;;;;4876227;29;20045;-64
2023/12/15 04:41:47;;;;;;;202.90;60.43;;;;;;;;;;4876174;29;20057;-64
2023/12/15 04:44:13;;;;;;;235.47;65.03;;;;;;;;;;4875747;29;20109;-64
2023/12/15 04:46:41;;;;;;;212.23;62.50;;;;;;;;;;4876146;29;20068;-64
2023/12/15 04:49:07;;;;;;;233.30;61.40;;;;;;;;;;4876619;29;20428;-64
2023/12/15 04:51:33;;;;;;;223.73;64.30;;;;;;;;;;4876266;29;20048;-63
2023/12/15 04:53:59;;;;;;;289.23;70.73;;;;;;;;;;4875708;29;20051;-64
2023/12/15 04:56:25;;;;;;;227.17;63.27;;;;;;;;;;4875626;29;20720;-64
2023/12/15 04:58:51;;;;;;;254.07;67.53;;;;;;;;;;4876201;29;20420;-63
2023/12/15 05:01:17;;;;;;;299.97;69.47;;;;;;;;;;4875952;29;20044;-64
2023/12/15 05:03:44;;;;;;;321.20;71.93;;;;;;;;;;4876324;29;20060;-64
2023/12/15 05:06:17;;;;;;;259.57;64.60;;;;;;;;;;4876240;29;20097;-63
2023/12/15 05:08:43;;;;;;;219.07;63.28;;;;;;;;;;4876537;29;20071;-63
2023/12/15 05:11:09;;;;;;;243.83;65.57;;;;;;;;;;4875677;29;20088;-64
2023/12/15 05:13:36;;;;;;;253.93;67.20;;;;;;;;;;4876016;29;20467;-63
2023/12/15 05:16:02;;;;;;;231.87;64.40;;;;;;;;;;4876070;29;20141;-64
2023/12/15 05:18:28;;;;;;;297.73;70.57;;;;;;;;;;4876188;29;20045;-63
2023/12/15 05:20:53;;;;;;;286.83;67.07;;;;;;;;;;4874712;29;20105;-63
2023/12/15 05:23:19;;;;;;;333.47;70.90;;;;;;;;;;4873359;29;20060;-64
2023/12/15 05:25:45;;;;;;;271.70;66.60;;;;;;;;;;4875155;29;20061;-64
2023/12/15 05:28:12;;;;;;;297.83;68.93;;;;;;;;;;4875525;29;20048;-64
2023/12/15 05:30:38;;;;;;;275.97;68.93;;;;;;;;;;4875809;29;20084;-63
2023/12/15 05:33:04;;;;;;;322.83;71.57;;;;;;;;;;4875311;29;20052;-64
2023/12/15 05:35:30;;;;;;;276.27;66.87;;;;;;;;;;4875371;29;20056;-64
2023/12/15 05:37:56;;;;;;;335.57;70.97;;;;;;;;;;4875197;29;20048;-63
2023/12/15 05:40:22;;;;;;;262.00;65.07;;;;;;;;;;4875224;29;20136;-63
2023/12/15 05:42:48;;;;;;;305.23;67.60;;;;;;;;;;4874034;29;20053;-63
2023/12/15 05:45:14;;;;;;;299.30;69.77;;;;;;;;;;4874851;29;20053;-64
2023/12/15 05:47:40;;;;;;;287.63;67.17;;;;;;;;;;4874259;29;20077;-64
2023/12/15 05:50:07;;;;;;;334.90;71.70;;;;;;;;;;4874781;29;20468;-63
2023/12/15 05:52:33;;;;;;;278.90;66.40;;;;;;;;;;4874840;29;20096;-63
2023/12/15 05:54:59;;;;;;;304.73;68.37;;;;;;;;;;4875167;29;20048;-63
2023/12/15 05:57:25;;;;;;;310.40;68.63;;;;;;;;;;4875165;29;20496;-63
2023/12/15 05:59:51;;;;;;;318.47;70.37;;;;;;;;;;4873432;29;20045;-63
2023/12/15 06:02:17;;;;;;;341.90;72.50;;;;;;;;;;4874351;29;20452;-63
2023/12/15 06:04:43;;;;;;;349.13;71.00;;;;;;;;;;4875208;29;20064;-64
2023/12/15 06:07:09;;;;;;;258.87;64.27;;;;;;;;;;4874841;29;20060;-63
2023/12/15 06:09:38;;;;;;;309.30;68.93;;;;;;;;;;4875019;29;20060;-63
2023/12/15 06:12:05;;;;;;;289.13;64.40;;;;;;;;;;4874945;29;20053;-63
2023/12/15 06:14:31;;;;;;;290.10;62.60;;;;;;;;;;4874824;29;20488;-64
2023/12/15 06:16:57;;;;;;;254.97;62.03;;;;;;;;;;4874251;29;20064;-64
2023/12/15 06:19:23;;;;;;;223.77;59.53;;;;;;;;;;4874893;29;20053;-63
2023/12/15 06:21:49;;;;;;;214.37;57.70;;;;;;;;;;4875053;29;20563;-64
2023/12/15 06:24:15;;;;;;;227.80;60.30;;;;;;;;;;4874354;29;20061;-64
2023/12/15 06:26:41;;;;;;;236.87;59.67;;;;;;;;;;4874324;29;20121;-64
2023/12/15 06:29:07;;;;;;;253.90;65.07;;;;;;;;;;4873876;29;20045;-64
2023/12/15 06:31:35;;;;;;;219.07;58.50;;;;;;;;;;4874066;29;20531;-63
2023/12/15 06:34:01;;;;;;;290.03;63.20;;;;;;;;;;4873579;29;20049;-64
2023/12/15 06:36:27;;;;;;;216.00;56.93;;;;;;;;;;4873476;29;20052;-64
2023/12/15 06:38:53;;;;;;;218.80;60.33;;;;;;;;;;4874714;29;20440;-63
2023/12/15 06:41:20;;;;;;;238.70;60.43;;;;;;;;;;4873876;29;20049;-64
2023/12/15 06:43:46;;;;;;;264.77;64.67;;;;;;;;;;4874388;29;20060;-63
2023/12/15 06:46:12;;;;;;;225.37;58.07;;;;;;;;;;4874380;29;20059;-63
2023/12/15 06:48:39;;;;;;;246.33;62.20;;;;;;;;;;4874412;29;20504;-63
2023/12/15 06:51:07;;;;;;;235.33;60.33;;;;;;;;;;4874437;29;20053;-64
2023/12/15 06:53:34;;;;;;;226.37;59.37;;;;;;;;;;4873824;29;20108;-63
2023/12/15 06:56:00;;;;;;;270.97;62.37;;;;;;;;;;4873306;29;20479;-64
2023/12/15 06:58:27;;;;;;;218.93;58.10;;;;;;;;;;4873003;29;20128;-64
2023/12/15 07:00:53;;;;;;;251.20;62.83;;;;;;;;;;4874311;29;20611;-63
2023/12/15 07:03:19;;;;;;;192.17;54.37;;;;;;;;;;4873040;29;20052;-63
2023/12/15 07:05:45;;;;;;;190.83;53.63;;;;;;;;;;4873961;29;20090;-63
2023/12/15 07:08:11;;;;;;;201.67;55.67;;;;;;;;;;4874623;29;20090;-63
2023/12/15 07:10:37;;;;;;;168.83;51.80;;;;;;;;;;4874221;29;20052;-63
2023/12/15 07:13:03;;;;;;;225.57;56.93;;;;;;;;;;4873848;29;20049;-63
2023/12/15 07:15:29;;;;;;;183.03;54.13;;;;;;;;;;4874187;29;20085;-64
2023/12/15 07:17:55;;;;;;;196.60;56.27;;;;;;;;;;4873285;29;20140;-64
2023/12/15 07:20:24;;;;;;;181.10;52.43;;;;;;;;;;4871799;29;20060;-64
2023/12/15 07:22:50;;;;;;;219.57;55.50;;;;;;;;;;4873567;29;20131;-64
2023/12/15 07:25:16;;;;;;;197.93;51.87;;;;;;;;;;4873352;29;20057;-64
2023/12/15 07:27:42;;;;;;;191.63;54.37;;;;;;;;;;4873727;29;20655;-64
2023/12/15 07:30:08;;;;;;;177.53;50.37;;;;;;;;;;4871918;29;20075;-64
2023/12/15 07:32:34;;;;;;;191.13;51.63;;;;;;;;;;4873510;29;20057;-63
2023/12/15 07:35:00;;;;;;;198.53;54.67;;;;;;;;;;4874223;29;20057;-63
2023/12/15 07:37:26;;;;;;;157.33;49.43;;;;;;;;;;4871966;29;20045;-64
2023/12/15 07:39:54;;;;;;;179.87;52.50;;;;;;;;;;4872422;29;20496;-63
2023/12/15 07:42:20;;;;;;;264.87;62.87;;;;;;;;;;4873924;29;20060;-64
2023/12/15 07:44:46;;;;;;;236.57;56.90;;;;;;;;;;4859786;29;20052;-64
2023/12/15 07:47:12;;;;;;;241.60;57.10;;;;;;;;;;4864094;29;20049;-64
2023/12/15 07:49:38;;;;;;;228.40;54.33;;;;;;;;;;4874675;29;20057;-63
2023/12/15 07:52:04;;;;;;;154.60;47.97;;;;;;;;;;4875543;29;20053;-64
2023/12/15 07:54:30;;;;;;;197.50;51.53;;;;;;;;;;4876919;29;20389;-64
2023/12/15 07:56:57;;;;;;;156.27;47.47;;;;;;;;;;4875895;29;20049;-63
2023/12/15 07:59:23;;;;;;;168.63;47.90;;;;;;;;;;4870957;29;20068;-64
2023/12/15 08:01:50;;;;;;;185.40;49.50;;;;;;;;;;4873243;29;20059;-64
2023/12/15 08:04:16;;;;;;;149.50;46.30;;;;;;;;;;4865597;29;20053;-64
2023/12/15 08:06:43;;;;;;;148.77;45.50;;;;;;;;;;4877473;29;20070;-64
2023/12/15 08:09:08;;;;;;;182.50;47.93;;;;;;;;;;4880414;29;20056;-63
2023/12/15 08:11:34;;;;;;;165.53;45.67;;;;;;;;;;4891463;29;20053;-64
2023/12/15 08:14:03;;;;;;;169.03;44.80;;;;;;;;;;4880102;29;20445;-63
2023/12/15 08:16:30;;;;;;;212.03;50.87;;;;;;;;;;4882282;29;20468;-63
2023/12/15 08:18:56;;;;;;;117.80;39.67;;;;;;;;;;4892340;29;20041;-64
2023/12/15 08:21:22;;;;;;;173.43;49.07;;;;;;;;;;4875698;29;20045;-64
2023/12/15 08:23:48;;;;;;;136.30;42.93;;;;;;;;;;4887061;29;20057;-64
2023/12/15 08:26:23;;;;;;;127.87;41.80;;;;;;;;;;4875533;29;20486;-64
2023/12/15 08:28:49;;;;;;;133.27;41.60;;;;;;;;;;4876003;29;20064;-64
2023/12/15 08:31:15;;;;;;;125.43;40.87;;;;;;;;;;4876203;29;20056;-64
2023/12/15 08:33:42;;;;;;;113.53;39.30;;;;;;;;;;4876437;29;20068;-64
2023/12/15 08:36:09;;;;;;;130.60;40.70;;;;;;;;;;4889616;29;20436;-63
2023/12/15 08:38:35;;;;;;;147.53;42.47;;;;;;;;;;4895126;29;20053;-64
2023/12/15 08:41:01;;;;;;;159.17;44.63;;;;;;;;;;4895458;29;20153;-63
2023/12/15 08:43:27;;;;;;;140.13;42.50;;;;;;;;;;4894565;29;20470;-63
2023/12/15 08:45:54;;;;;;;124.20;39.20;;;;;;;;;;4895026;29;20052;-63
2023/12/15 08:48:20;;;;;;;152.43;41.80;;;;;;;;;;4889393;29;20088;-64
2023/12/15 08:50:46;;;;;;;108.67;37.03;;;;;;;;;;4876386;29;20067;-64
2023/12/15 08:53:12;;;;;;;119.13;36.27;;;;;;;;;;4875913;29;20037;-63
2023/12/15 08:55:38;;;;;;;155.50;41.50;;;;;;;;;;4876320;29;20049;-64
2023/12/15 08:58:04;;;;;;;129.80;41.30;;;;;;;;;;4876317;29;20431;-64
2023/12/15 09:00:30;;;;;;;118.47;37.83;;;;;;;;;;4874901;29;20739;-63
2023/12/15 09:02:57;;;;;;;128.23;38.30;;;;;;;;;;4876481;29;20583;-64
2023/12/15 09:05:24;;;;;;;139.43;39.90;;;;;;;;;;4876431;29;20365;-63
2023/12/15 09:07:54;;;;;;;118.10;36.43;;;;;;;;;;4876393;29;20064;-63
2023/12/15 09:10:20;;;;;;;131.13;37.90;;;;;;;;;;4875732;29;20401;-63
2023/12/15 09:12:46;;;;;;;105.43;33.20;;;;;;;;;;4876012;29;20662;-64
2023/12/15 09:15:12;;;;;;;117.37;36.83;;;;;;;;;;4876240;29;20579;-63
2023/12/15 09:17:39;;;;;;;106.43;33.40;;;;;;;;;;4876429;29;20057;-63
2023/12/15 09:20:05;;;;;;;102.47;29.60;;;;;;;;;;4876108;29;20451;-64
2023/12/15 09:22:31;;;;;;;89.63;31.87;;;;;;;;;;4875690;29;20501;-63
2023/12/15 09:24:57;;;;;;;98.80;30.70;;;;;;;;;;4875197;29;20065;-63
2023/12/15 09:27:23;;;;;;;82.67;29.77;;;;;;;;;;4875812;29;20097;-64
2023/12/15 09:29:49;;;;;;;117.90;32.27;;;;;;;;;;4875595;29;20109;-64
2023/12/15 09:32:15;;;;;;;123.27;32.37;;;;;;;;;;4875846;29;20057;-64
2023/12/15 09:34:41;;;;;;;91.33;29.47;;;;;;;;;;4875244;29;20053;-64
2023/12/15 09:37:08;;;;;;;87.77;28.40;;;;;;;;;;4875464;29;20075;-64
2023/12/15 09:39:34;;;;;;;82.53;25.53;;;;;;;;;;4875483;29;20369;-63
2023/12/15 09:42:00;;;;;;;74.23;24.53;;;;;;;;;;4875319;29;20515;-64
2023/12/15 09:44:26;;;;;;;55.73;21.63;;;;;;;;;;4875312;29;20064;-63
2023/12/15 09:46:52;;;;;;;64.13;21.80;;;;;;;;;;4875574;29;20112;-64
2023/12/15 09:49:20;;;;;;;73.30;23.70;;;;;;;;;;4874805;29;20053;-63
2023/12/15 09:51:49;;;;;;;70.97;22.20;;;;;;;;;;4875322;29;20053;-64
2023/12/15 09:54:16;;;;;;;78.53;24.90;;;;;;;;;;4874413;29;20462;-63
2023/12/15 09:56:42;;;;;;;71.80;20.70;;;;;;;;;;4870021;29;20045;-64
2023/12/15 09:59:08;;;;;;;59.77;22.03;;;;;;;;;;4874737;29;20041;-64
2023/12/15 10:01:34;;;;;;;68.13;18.90;;;;;;;;;;4875289;29;20045;-64
2023/12/15 10:04:00;;;;;;;72.07;21.27;;;;;;;;;;4875157;29;20239;-64
2023/12/15 10:06:26;;;;;;;54.73;18.27;;;;;;;;;;4875323;29;20139;-64
2023/12/15 10:08:52;;;;;;;63.20;18.97;;;;;;;;;;4875274;29;20045;-64
2023/12/15 10:11:18;;;;;;;57.93;18.63;;;;;;;;;;4874343;29;20052;-64
2023/12/15 10:13:44;;;;;;;67.47;19.10;;;;;;;;;;4873480;29;20097;-64
2023/12/15 10:16:10;;;;;;;49.17;16.17;;;;;;;;;;4875127;29;20057;-63
2023/12/15 10:18:37;;;;;;;48.93;15.97;;;;;;;;;;4875189;29;20052;-64
2023/12/15 10:21:04;;;;;;;43.70;15.23;;;;;;;;;;4874297;29;20531;-64
2023/12/15 10:23:31;;;;;;;51.27;14.93;;;;;;;;;;4874864;29;20140;-63
2023/12/15 10:26:01;;;;;;;43.23;13.97;;;;;;;;;;4875033;29;20053;-64
2023/12/15 10:28:27;;;;;;;50.30;13.73;;;;;;;;;;4874459;29;20056;-64
2023/12/15 10:30:53;;;;;;;51.37;14.07;;;;;;;;;;4874651;29;20079;-63
2023/12/15 10:33:19;;;;;;;41.60;13.97;;;;;;;;;;4874363;29;20056;-63
2023/12/15 10:35:49;;;;;;;53.70;13.90;;;;;;;;;;4874367;29;20084;-64
2023/12/15 10:38:15;;;;;;;50.73;12.87;;;;;;;;;;4874612;29;20135;-63
2023/12/15 10:40:44;;;;;;;54.53;13.50;;;;;;;;;;4874486;29;20445;-64
2023/12/15 10:43:10;;;;;;;46.33;11.90;;;;;;;;;;4874784;29;20060;-64
2023/12/15 10:45:37;;;;;;;46.70;11.57;;;;;;;;;;4874971;29;20082;-63
2023/12/15 10:48:03;;;;;;;40.67;9.90;;;;;;;;;;4873799;29;20059;-63
2023/12/15 10:50:30;;;;;;;40.17;10.87;;;;;;;;;;4874534;29;20052;-64
2023/12/15 10:52:57;;;;;;;44.43;10.47;;;;;;;;;;4874766;29;20091;-63
2023/12/15 10:55:25;;;;;;;42.13;11.20;;;;;;;;;;4874583;29;20056;-63
2023/12/15 10:57:51;;;;;;;39.53;9.80;;;;;;;;;;4874482;29;20049;-63
2023/12/15 11:00:17;;;;;;;48.23;11.37;;;;;;;;;;4872886;29;20045;-64
2023/12/15 11:02:44;;;;;;;42.77;10.40;;;;;;;;;;4864739;29;20052;-63
2023/12/15 11:05:10;;;;;;;39.07;10.83;;;;;;;;;;4874158;29;20089;-63
2023/12/15 11:07:37;;;;;;;43.70;8.40;;;;;;;;;;4874500;29;20101;-63
2023/12/15 11:10:03;;;;;;;36.03;9.33;;;;;;;;;;4873830;29;20519;-64
2023/12/15 11:12:42;;;;;;;44.47;10.53;;;;;;;;;;4871263;29;20580;-63
2023/12/15 11:15:09;;;;;;;38.63;9.07;;;;;;;;;;4859764;29;20500;-63
2023/12/15 11:17:39;;;;;;;43.27;9.30;;;;;;;;;;4873462;29;20053;-63
2023/12/15 11:20:06;;;;;;;36.93;7.33;;;;;;;;;;4874898;29;20041;-63
2023/12/15 11:22:42;;;;;;;44.13;8.17;;;;;;;;;;4874212;29;20113;-63
2023/12/15 11:25:08;;;;;;;36.67;8.37;;;;;;;;;;4859201;29;20050;-63
2023/12/15 11:27:54;;;;;;;35.77;7.73;;;;;;;;;;4859769;29;20484;-63
2023/12/15 11:30:30;;;;;;;37.20;7.43;;;;;;;;;;4871160;29;20171;-63
2023/12/15 11:32:56;;;;;;;38.13;8.07;;;;;;;;;;4878375;29;20055;-63
2023/12/15 11:35:29;;;;;;;34.83;8.33;;;;;;;;;;4877890;29;20101;-63
2023/12/15 11:37:57;;;;;;;37.13;7.72;;;;;;;;;;4885292;29;20087;-63
2023/12/15 11:40:23;;;;;;;34.93;7.70;;;;;;;;;;4871244;29;20125;-63
2023/12/15 11:42:51;;;;;;;34.93;8.13;;;;;;;;;;4872519;29;20083;-63
2023/12/15 11:45:18;;;;;;;45.47;7.07;;;;;;;;;;4860476;29;20136;-63
2023/12/15 11:47:44;;;;;;;40.87;7.30;;;;;;;;;;4876595;29;20056;-63
2023/12/15 11:50:14;;;;;;;33.43;6.77;;;;;;;;;;4877123;29;20057;-63
2023/12/15 11:52:43;;;;;;;43.57;9.73;;;;;;;;;;4875408;29;20663;-63
2023/12/15 11:55:09;;;;;;;40.43;7.70;;;;;;;;;;4877665;29;20052;-63
2023/12/15 11:57:36;;;;;;;27.40;7.53;;;;;;;;;;4877692;29;20044;-63
2023/12/15 12:00:03;;;;;;;37.43;7.33;;;;;;;;;;4874371;29;20045;-64
2023/12/15 12:02:29;;;;;;;36.90;7.07;;;;;;;;;;4871864;29;20049;-63
2023/12/15 12:04:55;;;;;;;38.27;7.20;;;;;;;;;;4875635;29;20056;-63
2023/12/15 12:07:22;;;;;;;34.73;7.57;;;;;;;;;;4876814;29;20204;-63
2023/12/15 12:09:49;;;;;;;36.07;8.23;;;;;;;;;;4876748;29;20060;-63
2023/12/15 12:12:15;;;;;;;38.50;7.93;;;;;;;;;;4880798;29;20512;-63
2023/12/15 12:14:42;;;;;;;34.80;6.37;;;;;;;;;;4874989;29;20041;-63
2023/12/15 12:17:10;;;;;;;34.33;6.83;;;;;;;;;;4876176;29;20049;-63
2023/12/15 12:19:43;;;;;;;40.50;7.23;;;;;;;;;;4889638;29;20088;-63
2023/12/15 12:22:13;;;;;;;38.40;7.25;;;;;;;;;;4880079;29;20059;-63
2023/12/15 12:24:39;;;;;;;37.30;7.30;;;;;;;;;;4877323;29;20060;-63
2023/12/15 12:27:11;;;;;;;38.47;8.13;;;;;;;;;;4876262;29;20053;-63
2023/12/15 12:29:40;;;;;;;36.07;6.57;;;;;;;;;;4875633;29;20127;-63
2023/12/15 12:32:07;;;;;;;37.90;7.80;;;;;;;;;;4874843;29;20835;-63
2023/12/15 12:34:33;;;;;;;42.00;6.53;;;;;;;;;;4874735;29;20045;-63
2023/12/15 12:36:59;;;;;;;36.40;7.17;;;;;;;;;;4875111;29;20112;-63
2023/12/15 12:39:27;;;;;;;26.10;7.20;;;;;;;;;;4874512;29;20057;-63
2023/12/15 12:41:53;;;;;;;30.53;6.60;;;;;;;;;;4874749;29;20189;-63
2023/12/15 12:44:19;;;;;;;36.03;6.77;;;;;;;;;;4874784;29;20045;-63
2023/12/15 12:46:45;;;;;;;31.57;6.17;;;;;;;;;;4876853;29;20045;-63
2023/12/15 12:49:11;;;;;;;37.30;6.73;;;;;;;;;;4876064;29;20045;-63
2023/12/15 12:51:37;;;;;;;31.43;6.90;;;;;;;;;;4877188;29;20201;-63
2023/12/15 12:54:03;;;;;;;36.33;7.33;;;;;;;;;;4875449;29;20140;-63
2023/12/15 12:56:29;;;;;;;28.43;5.70;;;;;;;;;;4877267;29;20045;-63
2023/12/15 12:58:55;;;;;;;28.97;6.93;;;;;;;;;;4875689;29;20056;-63
2023/12/15 13:01:28;;;;;;;38.67;6.70;;;;;;;;;;4874881;29;20037;-63
2023/12/15 13:03:54;;;;;;;32.30;6.30;;;;;;;;;;4889295;29;20080;-63
2023/12/15 13:06:21;;;;;;;32.37;6.60;;;;;;;;;;4877180;29;20166;-63
2023/12/15 13:08:47;;;;;;;33.13;6.93;;;;;;;;;;4879233;29;20073;-63
2023/12/15 13:11:13;;;;;;;28.73;6.40;;;;;;;;;;4892754;29;20083;-63
2023/12/15 13:13:39;;;;;;;38.73;7.03;;;;;;;;;;4884097;29;20048;-63
2023/12/15 13:16:06;;;;;;;33.47;6.77;;;;;;;;;;4894661;29;20063;-63
2023/12/15 13:18:32;;;;;;;29.70;6.00;;;;;;;;;;4872535;29;20049;-63
2023/12/15 13:20:58;;;;;;;25.60;6.13;;;;;;;;;;4867408;29;20053;-63
2023/12/15 13:23:24;;;;;;;27.63;5.83;;;;;;;;;;4859528;29;20467;-63
2023/12/15 13:25:51;;;;;;;32.33;6.80;;;;;;;;;;4874293;29;20060;-63
2023/12/15 13:28:18;;;;;;;35.17;6.60;;;;;;;;;;4874671;29;20059;-62
2023/12/15 13:30:44;;;;;;;34.80;6.70;;;;;;;;;;4875054;29;20084;-62
2023/12/15 13:33:10;;;;;;;30.67;6.50;;;;;;;;;;4874095;29;20064;-62
2023/12/15 13:35:36;;;;;;;30.53;6.90;;;;;;;;;;4875861;29;20137;-62
2023/12/15 13:38:02;;;;;;;33.03;6.00;;;;;;;;;;4875204;29;20053;-62
2023/12/15 13:40:28;;;;;;;39.13;6.17;;;;;;;;;;4875059;29;20041;-61
2023/12/15 13:42:54;;;;;;;31.30;7.47;;;;;;;;;;4873802;29;20064;-62
2023/12/15 13:45:21;;;;;;;38.33;7.00;;;;;;;;;;4874339;29;20052;-62
2023/12/15 13:47:48;;;;;;;37.63;5.87;;;;;;;;;;4875436;29;20061;-62
2023/12/15 13:50:15;;;;;;;29.60;6.47;;;;;;;;;;4873948;29;20063;-62
2023/12/15 13:52:41;;;;;;;41.63;6.63;;;;;;;;;;4875877;29;20515;-62
2023/12/15 13:55:07;;;;;;;33.57;7.53;;;;;;;;;;4874512;29;20097;-62
2023/12/15 13:57:33;;;;;;;23.53;5.37;;;;;;;;;;4875393;29;20048;-62
2023/12/15 13:59:59;;;;;;;33.50;6.40;;;;;;;;;;4861827;29;20045;-62
2023/12/15 14:02:25;;;;;;;36.20;6.50;;;;;;;;;;4856825;29;20386;-62
2023/12/15 14:04:51;;;;;;;33.73;6.83;;;;;;;;;;4868162;29;20136;-62
2023/12/15 14:07:17;;;;;;;38.23;8.00;;;;;;;;;;4875368;29;20048;-62